createdAt,value
2023-02-18T00:00:42.221Z,3
2023-02-18T00:01:42.213Z,3
2023-02-18T00:02:42.268Z,3
2023-02-18T00:03:42.284Z,3
2023-02-18T00:04:42.177Z,3
2023-02-18T00:05:42.191Z,3
2023-02-18T00:06:42.172Z,3
2023-02-18T00:07:42.173Z,3
2023-02-18T00:08:42.136Z,3
2023-02-18T00:09:42.131Z,3
2023-02-18T00:10:42.115Z,3
2023-02-18T00:11:42.109Z,3
2023-02-18T00:12:42.101Z,3
2023-02-18T00:13:42.087Z,3
2023-02-18T00:14:42.083Z,3
2023-02-18T00:15:42.089Z,3
2023-02-18T00:16:42.076Z,3
2023-02-18T00:17:42.048Z,3
2023-02-18T00:18:42.030Z,3
2023-02-18T00:19:42.019Z,3
2023-02-18T00:20:42.016Z,3
2023-02-18T00:21:42.030Z,3
2023-02-18T00:22:41.993Z,3
2023-02-18T00:23:43.846Z,3
2023-02-18T00:24:41.973Z,3
2023-02-18T00:25:41.959Z,3
2023-02-18T00:26:41.948Z,3
2023-02-18T00:27:41.949Z,3
2023-02-18T00:28:41.931Z,3
2023-02-18T00:29:41.931Z,3
2023-02-18T00:30:41.908Z,3
2023-02-18T00:31:42.058Z,3
2023-02-18T00:32:41.897Z,3
2023-02-18T00:33:41.888Z,3
2023-02-18T00:34:41.867Z,3
2023-02-18T00:35:41.859Z,3
2023-02-18T00:36:41.863Z,3
2023-02-18T00:37:41.864Z,3
2023-02-18T00:38:41.829Z,4
2023-02-18T00:39:41.817Z,4
2023-02-18T00:40:41.811Z,3
2023-02-18T00:41:41.820Z,4
2023-02-18T00:42:41.783Z,3
2023-02-18T00:43:41.774Z,3
2023-02-18T00:44:41.766Z,4
2023-02-18T00:45:41.758Z,3
2023-02-18T00:46:41.848Z,3
2023-02-18T00:47:41.742Z,3
2023-02-18T00:48:41.725Z,4
2023-02-18T00:49:41.716Z,4
2023-02-18T00:50:41.700Z,4
2023-02-18T00:51:41.695Z,4
2023-02-18T00:52:41.680Z,4
2023-02-18T00:53:41.695Z,4
2023-02-18T00:54:41.674Z,4
2023-02-18T00:55:41.652Z,4
2023-02-18T00:56:41.642Z,4
2023-02-18T00:57:41.631Z,4
2023-02-18T00:58:41.631Z,4
2023-02-18T00:59:41.612Z,4
2023-02-18T01:00:41.598Z,4
2023-02-18T01:01:41.633Z,4
2023-02-18T01:02:41.579Z,4
2023-02-18T01:03:41.566Z,4
2023-02-18T01:04:41.589Z,4
2023-02-18T01:05:41.547Z,4
2023-02-18T01:06:41.537Z,4
2023-02-18T01:07:41.529Z,4
2023-02-18T01:08:41.520Z,4
2023-02-18T01:09:41.532Z,4
2023-02-18T01:10:41.503Z,4
2023-02-18T01:11:41.492Z,4
2023-02-18T01:12:41.481Z,4
2023-02-18T01:13:41.472Z,4
2023-02-18T01:14:41.456Z,4
2023-02-18T01:15:41.451Z,4
2023-02-18T01:16:41.443Z,4
2023-02-18T01:17:41.435Z,4
2023-02-18T01:18:41.428Z,4
2023-02-18T01:19:41.406Z,4
2023-02-18T01:20:41.396Z,4
2023-02-18T01:21:41.386Z,4
2023-02-18T01:22:41.378Z,4
2023-02-18T01:23:41.378Z,4
2023-02-18T01:24:41.353Z,4
2023-02-18T01:25:41.479Z,4
2023-02-18T01:26:41.335Z,4
2023-02-18T01:27:41.337Z,4
2023-02-18T01:28:41.315Z,4
2023-02-18T01:29:41.308Z,4
2023-02-18T01:30:41.299Z,4
2023-02-18T01:31:41.440Z,4
2023-02-18T01:32:41.275Z,4
2023-02-18T01:33:41.272Z,4
2023-02-18T01:34:41.256Z,4
2023-02-18T01:35:41.243Z,4
2023-02-18T01:36:41.235Z,4
2023-02-18T01:37:41.224Z,4
2023-02-18T01:38:41.214Z,4
2023-02-18T01:39:41.198Z,4
2023-02-18T01:40:41.194Z,4
2023-02-18T01:41:41.202Z,4
2023-02-18T01:42:41.165Z,4
2023-02-18T01:43:41.162Z,4
2023-02-18T01:44:41.144Z,4
2023-02-18T01:45:41.136Z,4
2023-02-18T01:46:41.195Z,4
2023-02-18T01:47:41.119Z,4
2023-02-18T01:48:41.219Z,4
2023-02-18T01:49:41.092Z,4
2023-02-18T01:50:41.084Z,4
2023-02-18T01:51:41.075Z,4
2023-02-18T01:52:41.065Z,4
2023-02-18T01:53:41.051Z,4
2023-02-18T01:54:41.042Z,4
2023-02-18T01:55:41.041Z,4
2023-02-18T01:56:41.045Z,4
2023-02-18T01:57:41.039Z,4
2023-02-18T01:58:40.997Z,4
2023-02-18T01:59:40.991Z,4
2023-02-18T02:00:40.993Z,4
2023-02-18T02:01:41.034Z,4
2023-02-18T02:02:40.964Z,4
2023-02-18T02:03:40.949Z,4
2023-02-18T02:04:40.938Z,4
2023-02-18T02:05:40.957Z,4
2023-02-18T02:06:40.917Z,4
2023-02-18T02:07:40.911Z,4
2023-02-18T02:08:40.899Z,4
2023-02-18T02:09:40.885Z,4
2023-02-18T02:10:40.873Z,4
2023-02-18T02:11:40.865Z,4
2023-02-18T02:12:40.861Z,4
2023-02-18T02:13:40.871Z,4
2023-02-18T02:14:40.834Z,4
2023-02-18T02:15:40.829Z,4
2023-02-18T02:16:40.840Z,4
2023-02-18T02:17:40.800Z,4
2023-02-18T02:18:40.789Z,4
2023-02-18T02:19:40.785Z,4
2023-02-18T02:20:40.773Z,4
2023-02-18T02:21:40.762Z,4
2023-02-18T02:22:40.750Z,4
2023-02-18T02:23:40.744Z,4
2023-02-18T02:24:40.731Z,4
2023-02-18T02:25:40.723Z,4
2023-02-18T02:26:40.730Z,4
2023-02-18T02:27:40.698Z,4
2023-02-18T02:28:40.688Z,4
2023-02-18T02:29:40.698Z,4
2023-02-18T02:30:40.760Z,4
2023-02-18T02:31:40.749Z,4
2023-02-18T02:32:40.647Z,4
2023-02-18T02:33:40.637Z,4
2023-02-18T02:34:40.626Z,4
2023-02-18T02:35:40.616Z,4
2023-02-18T02:36:40.603Z,3
2023-02-18T02:37:40.594Z,3
2023-02-18T02:38:40.586Z,3
2023-02-18T02:39:40.578Z,4
2023-02-18T02:40:40.565Z,4
2023-02-18T02:41:40.557Z,4
2023-02-18T02:42:40.543Z,4
2023-02-18T02:43:40.530Z,4
2023-02-18T02:44:40.522Z,4
2023-02-18T02:45:40.602Z,3
2023-02-18T02:46:40.527Z,4
2023-02-18T02:47:40.495Z,4
2023-02-18T02:48:40.494Z,4
2023-02-18T02:49:40.473Z,4
2023-02-18T02:50:40.464Z,4
2023-02-18T02:51:40.463Z,4
2023-02-18T02:52:40.447Z,4
2023-02-18T02:53:40.433Z,4
2023-02-18T02:54:40.528Z,4
2023-02-18T02:55:40.417Z,4
2023-02-18T02:56:40.403Z,4
2023-02-18T02:57:40.394Z,4
2023-02-18T02:58:40.384Z,4
2023-02-18T02:59:40.380Z,4
2023-02-18T03:00:40.364Z,4
2023-02-18T03:01:40.378Z,4
2023-02-18T03:02:40.401Z,4
2023-02-18T03:03:40.345Z,4
2023-02-18T03:04:40.323Z,4
2023-02-18T03:05:40.318Z,4
2023-02-18T03:06:40.300Z,4
2023-02-18T03:07:40.290Z,4
2023-02-18T03:08:40.283Z,4
2023-02-18T03:09:40.270Z,4
2023-02-18T03:10:40.260Z,4
2023-02-18T03:11:40.254Z,3
2023-02-18T03:12:40.246Z,4
2023-02-18T03:13:40.241Z,4
2023-02-18T03:14:40.223Z,4
2023-02-18T03:15:40.216Z,4
2023-02-18T03:16:40.247Z,4
2023-02-18T03:17:40.215Z,4
2023-02-18T03:18:40.180Z,4
2023-02-18T03:19:40.183Z,4
2023-02-18T03:20:40.159Z,4
2023-02-18T03:21:40.149Z,4
2023-02-18T03:22:40.137Z,4
2023-02-18T03:23:40.134Z,4
2023-02-18T03:24:40.116Z,4
2023-02-18T03:25:40.150Z,4
2023-02-18T03:26:40.099Z,4
2023-02-18T03:27:40.085Z,4
2023-02-18T03:28:40.083Z,4
2023-02-18T03:29:40.066Z,4
2023-02-18T03:30:40.060Z,4
2023-02-18T03:31:40.216Z,4
2023-02-18T03:32:40.038Z,4
2023-02-18T03:33:40.050Z,5
2023-02-18T03:34:40.027Z,4
2023-02-18T03:35:40.031Z,4
2023-02-18T03:36:39.998Z,4
2023-02-18T03:37:39.989Z,4
2023-02-18T03:38:39.976Z,4
2023-02-18T03:39:39.965Z,4
2023-02-18T03:40:39.957Z,4
2023-02-18T03:41:39.947Z,4
2023-02-18T03:42:39.947Z,4
2023-02-18T03:43:39.922Z,4
2023-02-18T03:44:39.915Z,4
2023-02-18T03:45:39.952Z,4
2023-02-18T03:46:39.895Z,4
2023-02-18T03:47:39.886Z,4
2023-02-18T03:48:39.875Z,4
2023-02-18T03:49:39.890Z,4
2023-02-18T03:50:39.854Z,4
2023-02-18T03:51:39.845Z,4
2023-02-18T03:52:39.835Z,4
2023-02-18T03:53:39.829Z,4
2023-02-18T03:54:39.909Z,4
2023-02-18T03:55:39.804Z,4
2023-02-18T03:56:39.786Z,4
2023-02-18T03:57:39.780Z,4
2023-02-18T03:58:39.768Z,5
2023-02-18T03:59:39.759Z,4
2023-02-18T04:00:39.743Z,4
2023-02-18T04:01:39.770Z,4
2023-02-18T04:02:39.724Z,4
2023-02-18T04:03:39.717Z,4
2023-02-18T04:04:39.804Z,5
2023-02-18T04:05:39.741Z,5
2023-02-18T04:06:39.684Z,5
2023-02-18T04:07:39.678Z,4
2023-02-18T04:08:39.670Z,4
2023-02-18T04:09:39.658Z,4
2023-02-18T04:10:39.644Z,5
2023-02-18T04:11:39.639Z,5
2023-02-18T04:12:39.643Z,4
2023-02-18T04:13:39.614Z,5
2023-02-18T04:14:39.601Z,5
2023-02-18T04:15:39.595Z,4
2023-02-18T04:16:39.787Z,4
2023-02-18T04:17:39.571Z,5
2023-02-18T04:18:39.559Z,5
2023-02-18T04:19:39.553Z,5
2023-02-18T04:20:39.539Z,5
2023-02-18T04:21:39.551Z,5
2023-02-18T04:22:39.515Z,5
2023-02-18T04:23:39.508Z,5
2023-02-18T04:24:39.497Z,5
2023-02-18T04:25:39.488Z,5
2023-02-18T04:26:39.475Z,5
2023-02-18T04:27:39.469Z,5
2023-02-18T04:28:39.459Z,5
2023-02-18T04:29:39.444Z,5
2023-02-18T04:30:39.626Z,5
2023-02-18T04:31:39.562Z,5
2023-02-18T04:32:39.420Z,5
2023-02-18T04:33:39.407Z,5
2023-02-18T04:34:39.395Z,5
2023-02-18T04:35:41.798Z,5
2023-02-18T04:36:39.382Z,5
2023-02-18T04:37:39.388Z,5
2023-02-18T04:38:39.350Z,5
2023-02-18T04:39:39.342Z,5
2023-02-18T04:40:39.336Z,5
2023-02-18T04:41:39.324Z,5
2023-02-18T04:42:39.310Z,5
2023-02-18T04:43:39.301Z,5
2023-02-18T04:44:39.310Z,5
2023-02-18T04:45:39.294Z,5
2023-02-18T04:46:39.272Z,5
2023-02-18T04:47:39.266Z,4
2023-02-18T04:48:39.257Z,5
2023-02-18T04:49:39.241Z,5
2023-02-18T04:50:39.250Z,5
2023-02-18T04:51:39.228Z,5
2023-02-18T04:52:39.213Z,5
2023-02-18T04:53:39.227Z,5
2023-02-18T04:54:39.223Z,5
2023-02-18T04:55:39.184Z,5
2023-02-18T04:56:39.172Z,5
2023-02-18T04:57:39.241Z,5
2023-02-18T04:58:39.145Z,5
2023-02-18T04:59:39.146Z,5
2023-02-18T05:00:39.132Z,5
2023-02-18T05:01:39.187Z,5
2023-02-18T05:02:39.256Z,5
2023-02-18T05:03:39.105Z,5
2023-02-18T05:04:39.093Z,5
2023-02-18T05:05:39.076Z,5
2023-02-18T05:06:39.068Z,5
2023-02-18T05:07:39.177Z,5
2023-02-18T05:08:39.055Z,5
2023-02-18T05:09:39.180Z,5
2023-02-18T05:10:39.040Z,5
2023-02-18T05:11:39.017Z,5
2023-02-18T05:12:39.010Z,5
2023-02-18T05:13:39.005Z,5
2023-02-18T05:14:38.990Z,5
2023-02-18T05:15:39.017Z,5
2023-02-18T05:16:39.069Z,5
2023-02-18T05:17:38.959Z,5
2023-02-18T05:18:38.953Z,5
2023-02-18T05:19:38.942Z,5
2023-02-18T05:20:38.931Z,5
2023-02-18T05:21:38.918Z,5
2023-02-18T05:22:39.013Z,5
2023-02-18T05:23:38.901Z,5
2023-02-18T05:24:38.900Z,4
2023-02-18T05:25:38.906Z,5
2023-02-18T05:26:38.869Z,5
2023-02-18T05:27:38.855Z,5
2023-02-18T05:28:38.854Z,5
2023-02-18T05:29:38.846Z,5
2023-02-18T05:30:38.833Z,5
2023-02-18T05:31:39.053Z,5
2023-02-18T05:32:38.805Z,5
2023-02-18T05:33:38.806Z,5
2023-02-18T05:34:38.783Z,5
2023-02-18T05:35:38.788Z,5
2023-02-18T05:36:38.763Z,5
2023-02-18T05:37:38.757Z,5
2023-02-18T05:38:38.771Z,5
2023-02-18T05:39:38.733Z,5
2023-02-18T05:40:38.728Z,5
2023-02-18T05:41:38.736Z,6
2023-02-18T05:42:38.705Z,6
2023-02-18T05:43:38.693Z,58.
2023-02-18T05:44:38.685Z,57.
2023-02-18T05:45:38.675Z,59.
2023-02-18T05:46:38.693Z,60.
2023-02-18T05:47:38.652Z,6
2023-02-18T05:48:38.638Z,5
2023-02-18T05:49:38.648Z,5
2023-02-18T05:50:38.617Z,6
2023-02-18T05:51:38.609Z,58.
2023-02-18T05:52:38.598Z,56.
2023-02-18T05:53:38.599Z,58.
2023-02-18T05:54:38.576Z,5
2023-02-18T05:55:38.570Z,5
2023-02-18T05:56:38.561Z,5
2023-02-18T05:57:38.570Z,5
2023-02-18T05:58:38.536Z,56.
2023-02-18T05:59:38.523Z,54.
2023-02-18T06:00:38.520Z,52.
2023-02-18T06:01:38.504Z,54.
2023-02-18T06:02:38.518Z,56.
2023-02-18T06:03:38.501Z,56.
2023-02-18T06:04:38.475Z,57.
2023-02-18T06:05:38.525Z,56.
2023-02-18T06:06:38.455Z,52.
2023-02-18T06:07:38.449Z,52.
2023-02-18T06:08:38.434Z,56.
2023-02-18T06:09:38.429Z,56.
2023-02-18T06:10:38.414Z,58.
2023-02-18T06:11:38.404Z,57.
2023-02-18T06:12:38.393Z,60.
2023-02-18T06:13:38.407Z,58.
2023-02-18T06:14:39.068Z,55.
2023-02-18T06:15:38.359Z,54.
2023-02-18T06:16:38.352Z,52.
2023-02-18T06:17:38.345Z,49.
2023-02-18T06:18:38.332Z,47.
2023-02-18T06:19:38.322Z,49.
2023-02-18T06:20:38.315Z,53.
2023-02-18T06:21:38.301Z,52.
2023-02-18T06:22:38.389Z,47.
2023-02-18T06:23:38.286Z,44.
2023-02-18T06:24:38.288Z,46.
2023-02-18T06:25:38.261Z,44.
2023-02-18T06:26:38.248Z,43.90
2023-02-18T06:27:38.233Z,41.50
2023-02-18T06:28:38.239Z,42.50
2023-02-18T06:29:38.242Z,42.00
2023-02-18T06:30:38.282Z,41.50
2023-02-18T06:31:38.289Z,41.50
2023-02-18T06:32:38.186Z,45.29
2023-02-18T06:33:38.171Z,50.00
2023-02-18T06:34:38.175Z,48.40
2023-02-18T06:35:38.153Z,49.20
2023-02-18T06:36:38.142Z,49.90
2023-02-18T06:37:38.135Z,49.90
2023-02-18T06:38:38.120Z,54.09
2023-02-18T06:39:38.108Z,56.79
2023-02-18T06:40:38.097Z,61.90
2023-02-18T06:41:38.094Z,61.00
2023-02-18T06:42:38.080Z,57.79
2023-02-18T06:43:38.074Z,61.00
2023-02-18T06:44:38.236Z,56.00
2023-02-18T06:45:38.067Z,57.20
2023-02-18T06:46:38.061Z,49.59
2023-02-18T06:47:38.024Z,48.00
2023-02-18T06:48:38.031Z,44.59
2023-02-18T06:49:38.014Z,45.90
2023-02-18T06:50:37.994Z,45.09
2023-02-18T06:51:38.085Z,39.09
2023-02-18T06:52:37.976Z,39.20
2023-02-18T06:53:37.961Z,42.70
2023-02-18T06:54:37.950Z,43.20
2023-02-18T06:55:37.942Z,43.79
2023-02-18T06:56:37.932Z,44.40
2023-02-18T06:57:37.922Z,47.20
2023-02-18T06:58:37.912Z,49.50
2023-02-18T06:59:37.903Z,50.29
2023-02-18T07:00:37.947Z,50.20
2023-02-18T07:01:37.903Z,51.50
2023-02-18T07:02:37.926Z,50.40
2023-02-18T07:03:37.920Z,51.70
2023-02-18T07:04:37.850Z,49.00
2023-02-18T07:05:37.838Z,43.70
2023-02-18T07:06:37.826Z,48.20
2023-02-18T07:07:37.820Z,48.50
2023-02-18T07:08:37.806Z,47.40
2023-02-18T07:09:37.800Z,47.00
2023-02-18T07:10:37.798Z,46.79
2023-02-18T07:11:37.777Z,45.59
2023-02-18T07:12:37.763Z,46.00
2023-02-18T07:13:37.755Z,45.20
2023-02-18T07:14:37.750Z,44.50
2023-02-18T07:15:37.736Z,46.29
2023-02-18T07:16:37.773Z,46.79
2023-02-18T07:17:37.739Z,47.79
2023-02-18T07:18:37.702Z,45.00
2023-02-18T07:19:37.695Z,42.29
2023-02-18T07:20:37.685Z,43.09
2023-02-18T07:21:37.674Z,43.09
2023-02-18T07:22:37.671Z,41.79
2023-02-18T07:23:37.657Z,43.40
2023-02-18T07:24:37.639Z,42.00
2023-02-18T07:25:37.629Z,41.79
2023-02-18T07:26:37.627Z,41.29
2023-02-18T07:27:37.612Z,41.40
2023-02-18T07:28:37.602Z,37.70
2023-02-18T07:29:37.592Z,33.79
2023-02-18T07:30:37.609Z,33.40
2023-02-18T07:31:37.708Z,35.00
2023-02-18T07:32:37.558Z,36.59
2023-02-18T07:33:37.585Z,33.59
2023-02-18T07:34:37.545Z,34.00
2023-02-18T07:35:37.535Z,28.50
2023-02-18T07:36:37.519Z,27.50
2023-02-18T07:37:37.508Z,27.60
2023-02-18T07:38:37.510Z,28.10
2023-02-18T07:39:37.491Z,28.00
2023-02-18T07:40:37.481Z,32.00
2023-02-18T07:41:37.476Z,30.60
2023-02-18T07:42:37.457Z,34.90
2023-02-18T07:43:37.600Z,31.20
2023-02-18T07:44:37.439Z,32.40
2023-02-18T07:45:37.468Z,31.29
2023-02-18T07:46:37.412Z,31.20
2023-02-18T07:47:37.408Z,32.40
2023-02-18T07:48:37.392Z,33.50
2023-02-18T07:49:37.426Z,30.89
2023-02-18T07:50:37.372Z,27.60
2023-02-18T07:51:37.365Z,26.79
2023-02-18T07:52:37.358Z,26.50
2023-02-18T07:53:37.341Z,25.29
2023-02-18T07:54:37.343Z,25.89
2023-02-18T07:55:37.321Z,26.20
2023-02-18T07:56:37.327Z,26.79
2023-02-18T07:57:37.304Z,23.39
2023-02-18T07:58:37.289Z,25.00
2023-02-18T07:59:37.283Z,25.29
2023-02-18T08:00:37.267Z,25.79
2023-02-18T08:01:37.264Z,25.20
2023-02-18T08:02:37.248Z,25.50
2023-02-18T08:03:37.234Z,25.50
2023-02-18T08:04:37.225Z,26.79
2023-02-18T08:05:37.244Z,27.70
2023-02-18T08:06:37.213Z,29.29
2023-02-18T08:07:37.194Z,33.70
2023-02-18T08:08:37.405Z,32.79
2023-02-18T08:09:37.169Z,29.79
2023-02-18T08:10:37.168Z,29.60
2023-02-18T08:11:37.159Z,29.39
2023-02-18T08:12:37.147Z,28.00
2023-02-18T08:13:37.143Z,27.10
2023-02-18T08:14:37.152Z,27.39
2023-02-18T08:15:37.115Z,26.79
2023-02-18T08:16:37.149Z,28.29
2023-02-18T08:17:37.093Z,28.20
2023-02-18T08:18:37.086Z,28.50
2023-02-18T08:19:37.075Z,28.10
2023-02-18T08:20:37.065Z,28.20
2023-02-18T08:21:37.076Z,26.89
2023-02-18T08:22:37.048Z,28.20
2023-02-18T08:23:37.031Z,26.39
2023-02-18T08:24:37.020Z,25.50
2023-02-18T08:25:37.018Z,26.89
2023-02-18T08:26:37.002Z,27.39
2023-02-18T08:27:36.992Z,28.39
2023-02-18T08:28:36.982Z,30.20
2023-02-18T08:29:36.982Z,29.00
2023-02-18T08:30:37.107Z,28.10
2023-02-18T08:31:37.043Z,28.50
2023-02-18T08:32:36.940Z,31.20
2023-02-18T08:33:36.932Z,29.29
2023-02-18T08:34:36.916Z,31.79
2023-02-18T08:35:36.911Z,41.59
2023-02-18T08:36:36.896Z,45.50
2023-02-18T08:37:52.568Z,41.50
2023-02-18T08:38:37.907Z,43.70
2023-02-18T08:39:39.504Z,40.50
2023-02-18T08:40:36.860Z,44.70
2023-02-18T08:41:36.847Z,40.79
2023-02-18T08:42:36.835Z,44.09
2023-02-18T08:43:36.829Z,47.40
2023-02-18T08:44:36.815Z,49.59
2023-02-18T08:45:36.956Z,48.20
2023-02-18T08:46:37.185Z,49.70
2023-02-18T08:48:17.097Z,48.20
2023-02-18T08:48:37.795Z,47.59
2023-02-18T08:49:36.763Z,47.90
2023-02-18T08:50:36.757Z,47.50
2023-02-18T08:51:36.740Z,46.70
2023-02-18T08:52:36.734Z,45.00
2023-02-18T08:53:36.787Z,45.00
2023-02-18T08:54:36.706Z,45.09
2023-02-18T08:55:36.698Z,44.59
2023-02-18T08:56:36.687Z,44.50
2023-02-18T08:57:36.682Z,43.09
2023-02-18T08:58:36.817Z,43.59
2023-02-18T08:59:36.656Z,42.70
2023-02-18T09:00:36.656Z,43.09
2023-02-18T09:01:36.675Z,42.50
2023-02-18T09:02:36.625Z,41.79
2023-02-18T09:03:36.619Z,43.09
2023-02-18T09:04:36.606Z,43.29
2023-02-18T09:05:36.595Z,41.59
2023-02-18T09:06:36.584Z,41.40
2023-02-18T09:07:36.578Z,42.50
2023-02-18T09:08:36.564Z,41.09
2023-02-18T09:09:36.578Z,41.40
2023-02-18T09:10:36.546Z,40.70
2023-02-18T09:11:36.531Z,40.50
2023-02-18T09:12:36.517Z,40.90
2023-02-18T09:13:36.509Z,39.20
2023-02-18T09:14:36.500Z,37.70
2023-02-18T09:15:36.515Z,37.90
2023-02-18T09:16:36.480Z,39.00
2023-02-18T09:17:36.468Z,37.59
2023-02-18T09:18:36.481Z,38.09
2023-02-18T09:19:36.453Z,39.00
2023-02-18T09:20:36.436Z,39.59
2023-02-18T09:21:36.429Z,38.40
2023-02-18T09:22:36.414Z,38.79
2023-02-18T09:23:36.421Z,37.90
2023-02-18T09:24:36.389Z,38.90
2023-02-18T09:25:36.554Z,39.79
2023-02-18T09:26:36.368Z,38.50
2023-02-18T09:27:36.361Z,39.09
2023-02-18T09:28:36.354Z,38.70
2023-02-18T09:29:36.339Z,37.70
2023-02-18T09:30:36.469Z,37.29
2023-02-18T09:31:36.422Z,38.90
2023-02-18T09:32:36.383Z,37.90
2023-02-18T09:33:36.299Z,36.90
2023-02-18T09:34:36.298Z,38.40
2023-02-18T09:35:36.278Z,37.20
2023-02-18T09:36:36.283Z,36.09
2023-02-18T09:37:36.255Z,36.79
2023-02-18T09:38:36.248Z,35.90
2023-02-18T09:39:36.235Z,36.09
2023-02-18T09:40:36.226Z,36.90
2023-02-18T09:41:36.237Z,35.70
2023-02-18T09:42:36.205Z,36.50
2023-02-18T09:43:36.197Z,36.00
2023-02-18T09:44:36.181Z,35.50
2023-02-18T09:45:36.168Z,35.59
2023-02-18T09:46:36.208Z,37.00
2023-02-18T09:47:36.181Z,36.40
2023-02-18T09:48:36.140Z,36.20
2023-02-18T09:49:36.129Z,36.40
2023-02-18T09:50:36.116Z,36.50
2023-02-18T09:51:36.112Z,36.90
2023-02-18T09:52:36.097Z,37.29
2023-02-18T09:53:36.088Z,36.59
2023-02-18T09:54:36.082Z,36.70
2023-02-18T09:55:36.071Z,37.20
2023-02-18T09:56:36.207Z,37.00
2023-02-18T09:57:36.072Z,37.00
2023-02-18T09:58:36.046Z,38.09
2023-02-18T09:59:36.032Z,37.50
2023-02-18T10:00:36.020Z,37.90
2023-02-18T10:01:36.047Z,37.79
2023-02-18T10:02:35.997Z,37.20
2023-02-18T10:03:36.005Z,36.70
2023-02-18T10:04:35.977Z,37.90
2023-02-18T10:05:35.967Z,37.20
2023-02-18T10:06:35.960Z,37.29
2023-02-18T10:07:35.954Z,36.90
2023-02-18T10:08:35.962Z,37.09
2023-02-18T10:09:35.933Z,37.70
2023-02-18T10:10:35.924Z,37.09
2023-02-18T10:11:35.910Z,37.70
2023-02-18T10:12:35.900Z,37.40
2023-02-18T10:13:35.949Z,36.90
2023-02-18T10:14:35.878Z,38.09
2023-02-18T10:15:35.916Z,36.79
2023-02-18T10:16:35.940Z,36.29
2023-02-18T10:17:35.844Z,35.90
2023-02-18T10:18:35.870Z,36.29
2023-02-18T10:19:35.826Z,35.90
2023-02-18T10:20:35.821Z,36.70
2023-02-18T10:21:35.808Z,37.09
2023-02-18T10:22:35.794Z,36.59
2023-02-18T10:23:35.787Z,36.50
2023-02-18T10:24:35.801Z,36.00
2023-02-18T10:25:35.767Z,36.20
2023-02-18T10:26:35.757Z,36.59
2023-02-18T10:27:35.746Z,36.50
2023-02-18T10:28:35.738Z,36.50
2023-02-18T10:29:35.755Z,35.29
2023-02-18T10:30:35.866Z,36.40
2023-02-18T10:31:35.839Z,36.20
2023-02-18T10:32:35.704Z,35.79
2023-02-18T10:33:35.686Z,35.59
2023-02-18T10:34:35.674Z,35.70
2023-02-18T10:35:35.668Z,35.59
2023-02-18T10:36:35.674Z,35.70
2023-02-18T10:37:35.648Z,35.50
2023-02-18T10:38:35.638Z,35.09
2023-02-18T10:39:35.628Z,36.90
2023-02-18T10:40:35.618Z,36.50
2023-02-18T10:41:35.614Z,36.20
2023-02-18T10:42:35.603Z,35.00
2023-02-18T10:43:35.586Z,34.70
2023-02-18T10:44:35.580Z,35.40
2023-02-18T10:45:35.595Z,35.70
2023-02-18T10:46:35.581Z,35.29
2023-02-18T10:47:35.552Z,36.20
2023-02-18T10:48:35.542Z,34.70
2023-02-18T10:49:35.551Z,36.20
2023-02-18T10:50:35.518Z,34.00
2023-02-18T10:51:35.557Z,34.20
2023-02-18T10:52:35.500Z,34.90
2023-02-18T10:53:35.486Z,35.20
2023-02-18T10:54:35.481Z,35.20
2023-02-18T10:55:35.471Z,35.00
2023-02-18T10:56:35.595Z,34.90
2023-02-18T10:57:35.451Z,33.90
2023-02-18T10:58:35.439Z,32.59
2023-02-18T10:59:35.425Z,34.29
2023-02-18T11:00:35.415Z,34.40
2023-02-18T11:01:35.467Z,33.29
2023-02-18T11:02:35.405Z,34.20
2023-02-18T11:03:35.388Z,33.50
2023-02-18T11:04:35.406Z,36.09
2023-02-18T11:05:35.364Z,36.79
2023-02-18T11:06:35.358Z,37.90
2023-02-18T11:07:35.355Z,37.90
2023-02-18T11:08:37.924Z,37.90
2023-02-18T11:09:35.325Z,38.59
2023-02-18T11:10:35.323Z,38.29
2023-02-18T11:11:35.330Z,37.59
2023-02-18T11:12:35.298Z,37.40
2023-02-18T11:13:35.300Z,37.70
2023-02-18T11:14:35.296Z,37.29
2023-02-18T11:15:35.272Z,40.20
2023-02-18T11:16:35.266Z,39.59
2023-02-18T11:17:35.278Z,38.90
2023-02-18T11:18:35.244Z,38.20
2023-02-18T11:19:35.263Z,36.09
2023-02-18T11:20:35.223Z,35.79
2023-02-18T11:21:35.210Z,35.59
2023-02-18T11:22:35.205Z,34.70
2023-02-18T11:23:35.196Z,34.90
2023-02-18T11:24:35.183Z,34.09
2023-02-18T11:25:35.170Z,34.50
2023-02-18T11:26:35.183Z,35.00
2023-02-18T11:27:35.151Z,34.79
2023-02-18T11:29:00.489Z,37.40
2023-02-18T11:30:51.308Z,36.09
2023-02-18T11:30:52.717Z,35.29
2023-02-18T11:31:52.843Z,35.09
2023-02-18T11:32:52.726Z,35.70
2023-02-18T11:33:52.696Z,35.70
2023-02-18T11:34:52.676Z,35.29
2023-02-18T11:35:55.833Z,34.59
2023-02-18T11:36:52.654Z,37.70
2023-02-18T11:38:30.509Z,38.70
2023-02-18T11:38:52.637Z,38.09
2023-02-18T11:39:52.632Z,39.00
2023-02-18T11:40:52.618Z,40.50
2023-02-18T11:41:52.608Z,40.59
2023-02-18T11:42:52.597Z,40.59
2023-02-18T11:43:52.592Z,41.59
2023-02-18T11:44:52.590Z,40.40
2023-02-18T11:45:52.569Z,39.50
2023-02-18T11:46:52.586Z,40.70
2023-02-18T11:47:52.548Z,39.79
2023-02-18T11:48:52.559Z,39.29
2023-02-18T11:49:52.531Z,39.09
2023-02-18T11:53:20.199Z,38.70
2023-02-18T11:54:45.702Z,37.50
2023-02-18T11:55:57.493Z,38.90
2023-02-18T11:56:21.580Z,37.50
2023-02-18T13:18:01.344Z,37.09
2023-02-18T13:18:02.774Z,25.29
2023-02-18T13:28:24.933Z,25.10
2023-02-18T13:28:26.352Z,21.00
2023-02-18T13:29:26.340Z,20.89
2023-02-18T13:30:26.384Z,20.89
2023-02-18T13:31:26.401Z,20.39
2023-02-18T13:32:26.314Z,20.89
2023-02-18T13:33:26.327Z,21.39
2023-02-18T13:34:26.296Z,21.79
2023-02-18T13:35:26.286Z,22.10
2023-02-18T13:36:26.273Z,22.50
2023-02-18T13:37:26.264Z,23.60
2023-02-18T13:38:26.254Z,24.29
2023-02-18T13:39:26.251Z,23.10
2023-02-18T13:46:06.480Z,20.89
2023-02-18T13:46:07.987Z,21.70
2023-02-18T13:50:52.066Z,21.50
2023-02-18T13:51:53.474Z,19.29
2023-02-18T13:54:59.604Z,18.89
2023-02-18T13:56:01.012Z,18.70
2023-02-18T13:57:01.013Z,21.10
2023-02-18T13:58:01.009Z,21.10
2023-02-18T13:59:00.981Z,20.10
2023-02-18T14:00:00.980Z,19.60
2023-02-18T14:01:00.986Z,20.79
2023-02-18T14:02:00.988Z,20.50
2023-02-18T14:03:00.985Z,20.20
2023-02-18T14:04:00.954Z,21.29
2023-02-18T14:05:00.929Z,22.00
2023-02-18T14:06:00.941Z,22.10
2023-02-18T14:07:00.908Z,22.70
2023-02-18T14:08:00.905Z,22.39
2023-02-18T14:09:00.888Z,23.00
2023-02-18T14:10:00.879Z,22.20
2023-02-18T14:11:00.867Z,21.89
2023-02-18T14:12:00.873Z,20.60
2023-02-18T14:13:00.857Z,19.79
2023-02-18T14:14:00.849Z,20.29
2023-02-18T14:15:00.828Z,19.70
2023-02-18T14:16:00.959Z,20.20
2023-02-18T14:17:00.814Z,19.79
2023-02-18T14:18:00.802Z,19.79
2023-02-18T14:19:00.792Z,19.10
2023-02-18T14:20:00.805Z,19.10
2023-02-18T14:21:00.770Z,17.70
2023-02-18T14:22:00.782Z,18.29
2023-02-18T14:23:00.749Z,18.29
2023-02-18T14:24:00.742Z,18.79
2023-02-18T14:25:00.737Z,19.10
2023-02-18T14:26:00.727Z,18.20
2023-02-18T14:27:00.713Z,16.70
2023-02-18T14:28:00.716Z,17.20
2023-02-18T14:29:00.692Z,17.70
2023-02-18T14:30:00.732Z,16.10
2023-02-18T14:31:00.768Z,16.89
2023-02-18T14:32:00.851Z,17.29
2023-02-18T14:33:00.668Z,17.10
2023-02-18T14:34:00.647Z,17.39
2023-02-18T14:35:00.635Z,17.20
2023-02-18T14:36:00.639Z,17.00
2023-02-18T14:37:00.675Z,16.29
2023-02-18T14:38:00.630Z,17.10
2023-02-18T14:39:00.603Z,17.00
2023-02-18T14:40:00.584Z,17.29
2023-02-18T14:41:00.573Z,17.10
2023-02-18T14:42:00.569Z,17.79
2023-02-18T14:43:00.556Z,17.79
2023-02-18T14:44:00.545Z,16.20
2023-02-18T14:45:00.545Z,15.19
2023-02-18T14:46:00.548Z,14.89
2023-02-18T14:47:00.511Z,15.39
2023-02-18T14:48:00.506Z,15.69
2023-02-18T14:49:00.503Z,15.10
2023-02-18T14:50:00.488Z,14.60
2023-02-18T14:51:00.473Z,15.19
2023-02-18T14:52:00.470Z,14.39
2023-02-18T14:53:00.453Z,15.50
2023-02-18T14:54:00.472Z,15.89
2023-02-18T14:55:00.434Z,15.39
2023-02-18T14:56:00.436Z,15.50
2023-02-18T14:57:00.434Z,16.39
2023-02-18T14:58:00.409Z,15.30
2023-02-18T14:59:00.399Z,15.60
2023-02-18T15:00:00.385Z,15.60
2023-02-18T15:01:00.378Z,16.29
2023-02-18T15:02:00.388Z,15.50
2023-02-18T15:03:00.354Z,15.00
2023-02-18T15:04:00.345Z,14.89
2023-02-18T15:05:10.779Z,15.30
2023-02-18T15:06:00.325Z,14.19
2023-02-18T15:07:00.313Z,14.69
2023-02-18T15:08:00.308Z,14.60
2023-02-18T15:09:00.294Z,15.00
2023-02-18T15:10:00.319Z,14.69
2023-02-18T15:11:00.272Z,15.10
2023-02-18T15:12:00.262Z,14.30
2023-02-18T15:13:00.253Z,14.69
2023-02-18T15:14:00.240Z,15.00
2023-02-18T15:15:00.231Z,15.60
2023-02-18T15:16:00.278Z,15.39
2023-02-18T15:17:00.210Z,15.30
2023-02-18T15:18:00.201Z,15.60
2023-02-18T15:19:00.187Z,14.60
2023-02-18T15:20:00.181Z,15.30
2023-02-18T15:21:00.167Z,15.60
2023-02-18T15:22:00.172Z,14.89